首页
METAR-TAF:

METAR-TAF

机场 :

Caldwell Industrial Airport

Caldwell, 爱达荷州, 美国

纬度: 43-38N, 经度: 116-38W, 海拔: 740米

当前天气观测

该预报发布于1小时和1分钟前的18:56 UTC
风速10节,风向东南
温度 7°C
湿度 33%
气压 1031 hPa
能見度: 16.1公里
天空无云

METAR: KEUL 261856Z AUTO 13010KT 10SM CLR 07/M08 A3046 RMK AO2 SLP332 T00721083

时间: 12:57 (19:57 UTC)

预报

该预报发布于2小时和37分钟前的17:20 UTC
预报有效从26日的 18点(UTC)到 27日的 18点(UTC)
风速5节,风向多变
能見度: 10公里
散云层高于11000英尺

TAF: KEUL 261720Z 2618/2718 VRB05KT P6SM SCT110

超过4000个机场的气象观测和天气预报(METAR&TAF报告)。

可查询的气象台以黄色和红色小点在地图上表示。

将鼠标移到小点上方,可查看气象台名称。

然后点击查看天气观测和预报。

如需切换地图:点击带黑十字的绿色按钮放大地图;点击带横线的绿色按钮缩小地图;或者点击绿色箭头查看邻近地区的地图。


METAR-TAF: